createdAt,value
2022-09-07T00:00:47.337Z,15.86
2022-09-07T00:01:47.316Z,15.88
2022-09-07T00:02:47.352Z,15.86
2022-09-07T00:03:47.290Z,15.90
2022-09-07T00:04:47.275Z,15.86
2022-09-07T00:05:47.265Z,15.88
2022-09-07T00:06:47.252Z,15.91
2022-09-07T00:07:47.251Z,15.90
2022-09-07T00:08:47.226Z,15.92
2022-09-07T00:09:47.210Z,15.95
2022-09-07T00:10:47.198Z,15.94
2022-09-07T00:11:47.187Z,15.94
2022-09-07T00:12:47.180Z,15.94
2022-09-07T00:13:47.163Z,15.94
2022-09-07T00:14:47.156Z,15.95
2022-09-07T00:15:47.169Z,15.95
2022-09-07T00:16:47.143Z,15.95
2022-09-07T00:17:47.119Z,15.94
2022-09-07T00:18:47.106Z,15.95
2022-09-07T00:19:47.087Z,15.95
2022-09-07T00:20:47.076Z,15.95
2022-09-07T00:21:47.060Z,15.97
2022-09-07T00:22:47.052Z,15.97
2022-09-07T00:23:47.041Z,15.97
2022-09-07T00:24:47.023Z,15.98
2022-09-07T00:25:50.105Z,15.98
2022-09-07T00:26:48.034Z,15.98
2022-09-07T00:27:46.988Z,15.98
2022-09-07T00:28:47.002Z,15.97
2022-09-07T00:29:46.960Z,15.97
2022-09-07T00:30:46.954Z,15.97
2022-09-07T00:31:47.016Z,15.97
2022-09-07T00:32:46.926Z,15.95
2022-09-07T00:33:46.920Z,15.95
2022-09-07T00:34:46.892Z,15.95
2022-09-07T00:35:46.891Z,15.97
2022-09-07T00:36:46.871Z,15.94
2022-09-07T00:37:46.860Z,15.94
2022-09-07T00:38:46.847Z,15.94
2022-09-07T00:39:46.927Z,15.92
2022-09-07T00:40:46.825Z,15.94
2022-09-07T00:41:46.811Z,15.95
2022-09-07T00:42:46.795Z,15.95
2022-09-07T00:43:46.785Z,15.94
2022-09-07T00:44:46.773Z,15.94
2022-09-07T00:45:46.753Z,15.92
2022-09-07T00:46:46.832Z,15.92
2022-09-07T00:47:46.733Z,15.91
2022-09-07T00:48:46.726Z,15.88
2022-09-07T00:49:46.713Z,15.90
2022-09-07T00:50:46.693Z,15.88
2022-09-07T00:51:46.679Z,15.86
2022-09-07T00:52:46.674Z,15.84
2022-09-07T00:53:46.654Z,15.86
2022-09-07T00:54:46.650Z,15.86
2022-09-07T00:55:46.633Z,15.84
2022-09-07T00:56:46.619Z,15.84
2022-09-07T00:57:46.611Z,15.83
2022-09-07T00:58:46.590Z,15.83
2022-09-07T00:59:46.582Z,15.80
2022-09-07T01:00:46.572Z,15.80
2022-09-07T01:01:46.698Z,15.79
2022-09-07T01:02:46.792Z,15.77
2022-09-07T01:03:46.531Z,15.76
2022-09-07T01:04:46.528Z,15.76
2022-09-07T01:05:46.508Z,15.76
2022-09-07T01:06:46.496Z,15.79
2022-09-07T01:07:46.482Z,15.77
2022-09-07T01:08:46.467Z,15.76
2022-09-07T01:09:46.455Z,15.76
2022-09-07T01:10:46.445Z,15.73
2022-09-07T01:11:46.430Z,15.72
2022-09-07T01:12:46.418Z,15.70
2022-09-07T01:13:46.406Z,15.72
2022-09-07T01:14:46.396Z,15.68
2022-09-07T01:15:46.436Z,15.67
2022-09-07T01:16:46.368Z,15.67
2022-09-07T01:17:46.354Z,15.65
2022-09-07T01:18:46.341Z,15.62
2022-09-07T01:19:46.330Z,15.61
2022-09-07T01:20:46.314Z,15.59
2022-09-07T01:21:46.299Z,15.64
2022-09-07T01:22:46.289Z,15.65
2022-09-07T01:23:46.280Z,15.64
2022-09-07T01:24:46.264Z,15.64
2022-09-07T01:25:46.254Z,15.64
2022-09-07T01:26:46.241Z,15.62
2022-09-07T01:27:46.230Z,15.61
2022-09-07T01:28:46.214Z,15.59
2022-09-07T01:29:46.201Z,15.61
2022-09-07T01:30:46.232Z,15.61
2022-09-07T01:31:46.177Z,15.61
2022-09-07T01:32:46.163Z,15.64
2022-09-07T01:33:46.151Z,15.64
2022-09-07T01:34:46.137Z,15.64
2022-09-07T01:35:46.124Z,15.65
2022-09-07T01:36:46.110Z,15.65
2022-09-07T01:37:46.096Z,15.61
2022-09-07T01:38:46.091Z,15.62
2022-09-07T01:39:46.164Z,15.58
2022-09-07T01:40:46.061Z,15.58
2022-09-07T01:41:46.051Z,15.58
2022-09-07T01:42:46.041Z,15.59
2022-09-07T01:43:46.026Z,15.57
2022-09-07T01:44:46.013Z,15.58
2022-09-07T01:45:45.999Z,15.57
2022-09-07T01:46:46.056Z,15.59
2022-09-07T01:47:45.984Z,15.59
2022-09-07T01:48:45.961Z,15.61
2022-09-07T01:49:45.948Z,15.61
2022-09-07T01:50:45.932Z,15.59
2022-09-07T01:51:45.923Z,15.61
2022-09-07T01:52:45.911Z,15.61
2022-09-07T01:53:45.900Z,15.62
2022-09-07T01:54:45.889Z,15.61
2022-09-07T01:55:45.873Z,15.62
2022-09-07T01:56:45.867Z,15.65
2022-09-07T01:57:45.852Z,15.67
2022-09-07T01:58:45.839Z,15.67
2022-09-07T01:59:45.832Z,15.64
2022-09-07T02:00:45.814Z,15.65
2022-09-07T02:01:45.896Z,15.64
2022-09-07T02:02:45.899Z,15.62
2022-09-07T02:03:45.773Z,15.58
2022-09-07T02:04:45.759Z,15.57
2022-09-07T02:05:45.748Z,15.54
2022-09-07T02:06:45.735Z,15.52
2022-09-07T02:07:45.729Z,15.52
2022-09-07T02:08:45.711Z,15.54
2022-09-07T02:09:45.693Z,15.51
2022-09-07T02:10:45.685Z,15.52
2022-09-07T02:11:45.676Z,15.51
2022-09-07T02:12:45.672Z,15.52
2022-09-07T02:13:45.646Z,15.47
2022-09-07T02:14:48.350Z,15.49
2022-09-07T02:15:45.704Z,15.49
2022-09-07T02:16:45.610Z,15.46
2022-09-07T02:17:45.596Z,15.47
2022-09-07T02:18:45.585Z,15.44
2022-09-07T02:19:45.573Z,15.42
2022-09-07T02:20:45.558Z,15.43
2022-09-07T02:21:45.546Z,15.46
2022-09-07T02:22:45.531Z,15.43
2022-09-07T02:23:45.525Z,15.42
2022-09-07T02:24:45.509Z,15.37
2022-09-07T02:25:45.498Z,15.36
2022-09-07T02:26:45.484Z,15.35
2022-09-07T02:27:45.479Z,15.35
2022-09-07T02:28:45.457Z,15.31
2022-09-07T02:29:45.448Z,15.31
2022-09-07T02:30:45.523Z,15.31
2022-09-07T02:31:45.420Z,15.28
2022-09-07T02:32:45.412Z,15.25
2022-09-07T02:33:45.392Z,15.21
2022-09-07T02:34:45.383Z,15.19
2022-09-07T02:35:45.373Z,15.21
2022-09-07T02:36:45.358Z,15.18
2022-09-07T02:37:45.344Z,15.19
2022-09-07T02:38:45.339Z,15.18
2022-09-07T02:39:45.364Z,15.15
2022-09-07T02:40:45.309Z,15.15
2022-09-07T02:41:45.303Z,15.11
2022-09-07T02:42:45.284Z,15.11
2022-09-07T02:43:45.267Z,15.10
2022-09-07T02:44:45.255Z,15.09
2022-09-07T02:45:45.246Z,15.09
2022-09-07T02:46:45.289Z,15.10
2022-09-07T02:47:45.214Z,15.11
2022-09-07T02:48:45.204Z,15.09
2022-09-07T02:49:45.193Z,15.09
2022-09-07T02:50:45.177Z,15.07
2022-09-07T02:51:45.169Z,15.07
2022-09-07T02:52:45.154Z,15.03
2022-09-07T02:53:45.140Z,15.03
2022-09-07T02:54:45.129Z,15.02
2022-09-07T02:55:45.120Z,15.00
2022-09-07T02:56:45.106Z,14.99
2022-09-07T02:57:45.091Z,14.96
2022-09-07T02:58:45.078Z,14.97
2022-09-07T02:59:45.067Z,14.96
2022-09-07T03:00:45.053Z,14.92
2022-09-07T03:01:45.076Z,14.94
2022-09-07T03:02:45.114Z,14.89
2022-09-07T03:03:45.018Z,14.89
2022-09-07T03:04:45.005Z,14.91
2022-09-07T03:05:44.992Z,14.91
2022-09-07T03:06:44.980Z,14.92
2022-09-07T03:07:44.963Z,14.88
2022-09-07T03:08:44.951Z,14.85
2022-09-07T03:09:44.941Z,14.86
2022-09-07T03:10:44.928Z,14.85
2022-09-07T03:11:44.914Z,14.84
2022-09-07T03:12:44.922Z,14.81
2022-09-07T03:13:44.894Z,14.79
2022-09-07T03:14:44.880Z,14.79
2022-09-07T03:15:44.911Z,14.78
2022-09-07T03:16:44.858Z,14.78
2022-09-07T03:17:44.842Z,14.77
2022-09-07T03:18:44.830Z,14.78
2022-09-07T03:19:44.814Z,14.73
2022-09-07T03:20:44.802Z,14.70
2022-09-07T03:21:44.792Z,14.69
2022-09-07T03:22:44.777Z,14.70
2022-09-07T03:23:47.772Z,14.66
2022-09-07T03:24:44.756Z,14.68
2022-09-07T03:25:44.737Z,14.65
2022-09-07T03:26:44.725Z,14.60
2022-09-07T03:27:44.713Z,14.62
2022-09-07T03:28:44.701Z,14.62
2022-09-07T03:29:44.687Z,14.60
2022-09-07T03:30:44.730Z,14.62
2022-09-07T03:31:44.665Z,14.63
2022-09-07T03:32:44.651Z,14.63
2022-09-07T03:33:44.639Z,14.60
2022-09-07T03:34:44.636Z,14.63
2022-09-07T03:35:44.624Z,14.62
2022-09-07T03:36:44.605Z,14.63
2022-09-07T03:37:44.588Z,14.60
2022-09-07T03:38:44.575Z,14.60
2022-09-07T03:39:44.615Z,14.54
2022-09-07T03:40:44.556Z,14.54
2022-09-07T03:41:44.542Z,14.55
2022-09-07T03:42:44.527Z,14.55
2022-09-07T03:43:44.517Z,14.54
2022-09-07T03:44:44.498Z,14.55
2022-09-07T03:45:44.525Z,14.55
2022-09-07T03:46:44.477Z,14.55
2022-09-07T03:47:44.457Z,14.55
2022-09-07T03:48:44.447Z,14.55
2022-09-07T03:49:44.442Z,14.59
2022-09-07T03:50:44.429Z,14.58
2022-09-07T03:51:44.420Z,14.58
2022-09-07T03:52:44.395Z,14.51
2022-09-07T03:53:44.387Z,14.50
2022-09-07T03:54:44.372Z,14.50
2022-09-07T03:55:44.359Z,14.47
2022-09-07T03:56:44.355Z,14.48
2022-09-07T03:57:44.340Z,14.50
2022-09-07T03:58:44.325Z,14.51
2022-09-07T03:59:44.312Z,14.53
2022-09-07T04:00:44.302Z,14.53
2022-09-07T04:01:44.391Z,14.53
2022-09-07T04:02:44.352Z,14.54
2022-09-07T04:03:44.263Z,14.50
2022-09-07T04:04:44.254Z,14.54
2022-09-07T04:05:44.237Z,14.53
2022-09-07T04:06:44.219Z,14.55
2022-09-07T04:07:44.213Z,14.58
2022-09-07T04:08:44.198Z,14.58
2022-09-07T04:09:44.185Z,14.59
2022-09-07T04:10:44.173Z,14.60
2022-09-07T04:11:44.162Z,14.59
2022-09-07T04:12:44.149Z,14.62
2022-09-07T04:13:44.137Z,14.59
2022-09-07T04:14:44.125Z,14.59
2022-09-07T04:15:44.115Z,14.58
2022-09-07T04:16:44.121Z,14.58
2022-09-07T04:17:44.085Z,14.58
2022-09-07T04:18:44.079Z,14.55
2022-09-07T04:19:44.059Z,14.55
2022-09-07T04:20:44.048Z,14.58
2022-09-07T04:21:44.038Z,14.59
2022-09-07T04:22:44.025Z,14.60
2022-09-07T04:23:44.012Z,14.59
2022-09-07T04:24:43.992Z,14.63
2022-09-07T04:25:43.989Z,14.63
2022-09-07T04:26:43.972Z,14.65
2022-09-07T04:27:43.960Z,14.63
2022-09-07T04:28:43.950Z,14.66
2022-09-07T04:29:43.935Z,14.66
2022-09-07T04:30:43.966Z,14.65
2022-09-07T04:31:43.911Z,14.69
2022-09-07T04:32:43.896Z,14.72
2022-09-07T04:33:43.886Z,14.72
2022-09-07T04:34:43.871Z,14.73
2022-09-07T04:35:43.864Z,14.77
2022-09-07T04:36:43.846Z,14.78
2022-09-07T04:37:43.836Z,14.78
2022-09-07T04:38:43.830Z,14.81
2022-09-07T04:39:43.822Z,14.82
2022-09-07T04:40:43.796Z,14.85
2022-09-07T04:41:43.787Z,14.85
2022-09-07T04:42:43.772Z,14.86
2022-09-07T04:43:43.754Z,14.89
2022-09-07T04:44:43.747Z,14.89
2022-09-07T04:45:43.790Z,14.89
2022-09-07T04:46:43.719Z,14.91
2022-09-07T04:47:43.716Z,14.91
2022-09-07T04:48:43.694Z,14.92
2022-09-07T04:49:43.683Z,14.91
2022-09-07T04:50:43.670Z,14.89
2022-09-07T04:51:43.660Z,14.88
2022-09-07T04:52:43.650Z,14.91
2022-09-07T04:53:43.634Z,14.91
2022-09-07T04:54:43.620Z,14.92
2022-09-07T04:55:43.610Z,14.92
2022-09-07T04:56:43.597Z,14.92
2022-09-07T04:57:43.581Z,14.94
2022-09-07T04:58:43.572Z,14.96
2022-09-07T04:59:43.563Z,14.96
2022-09-07T05:00:43.544Z,14.96
2022-09-07T05:01:43.580Z,14.97
2022-09-07T05:02:43.595Z,14.96
2022-09-07T05:03:43.511Z,14.99
2022-09-07T05:04:43.491Z,15.00
2022-09-07T05:05:43.486Z,15.03
2022-09-07T05:06:43.469Z,15.04
2022-09-07T05:07:43.472Z,15.07
2022-09-07T05:08:43.447Z,15.07
2022-09-07T05:09:43.431Z,15.11
2022-09-07T05:10:43.426Z,15.14
2022-09-07T05:11:43.401Z,15.15
2022-09-07T05:12:43.395Z,15.17
2022-09-07T05:13:43.386Z,15.15
2022-09-07T05:14:43.369Z,15.18
2022-09-07T05:15:43.367Z,15.17
2022-09-07T05:16:43.386Z,15.19
2022-09-07T05:17:43.330Z,15.17
2022-09-07T05:18:43.318Z,15.18
2022-09-07T05:19:43.310Z,15.19
2022-09-07T05:20:43.296Z,15.19
2022-09-07T05:21:43.280Z,15.21
2022-09-07T05:22:43.272Z,15.27
2022-09-07T05:23:43.258Z,15.25
2022-09-07T05:24:43.246Z,15.28
2022-09-07T05:25:43.235Z,15.28
2022-09-07T05:26:43.220Z,15.29
2022-09-07T05:27:43.205Z,15.31
2022-09-07T05:28:43.203Z,15.29
2022-09-07T05:31:43.154Z,15.39
2022-09-07T05:32:43.143Z,15.40
2022-09-07T05:34:43.122Z,15.42
2022-09-07T05:35:43.117Z,15.43
2022-09-07T05:36:43.094Z,15.44
2022-09-07T05:37:43.080Z,15.44
2022-09-07T05:38:43.076Z,15.43
2022-09-07T05:39:43.180Z,15.39
2022-09-07T05:40:43.042Z,15.37
2022-09-07T05:41:43.029Z,15.37
2022-09-07T05:42:43.012Z,15.36
2022-09-07T05:44:44.814Z,15.36
2022-09-07T05:45:43.014Z,15.37
2022-09-07T05:46:42.965Z,15.39
2022-09-07T05:47:42.952Z,15.40
2022-09-07T05:48:42.949Z,15.40
2022-09-07T05:49:42.931Z,15.39
2022-09-07T05:50:42.921Z,15.33
2022-09-07T05:51:42.902Z,15.31
2022-09-07T05:52:42.891Z,15.29
2022-09-07T05:53:42.880Z,15.31
2022-09-07T05:54:42.868Z,15.31
2022-09-07T05:55:42.850Z,15.35
2022-09-07T05:56:42.845Z,15.42
2022-09-07T05:57:42.833Z,15.47
2022-09-07T05:58:42.814Z,15.59
2022-09-07T05:59:42.801Z,15.76
2022-09-07T06:00:42.795Z,16.04
2022-09-07T06:01:42.825Z,16.99
2022-09-07T06:02:42.887Z,17.65
2022-09-07T06:03:42.754Z,17.63
2022-09-07T06:04:42.743Z,17.41
2022-09-07T06:05:42.728Z,17.42
2022-09-07T06:06:47.847Z,17.48
2022-09-07T06:07:43.763Z,18.01
2022-09-07T06:08:42.699Z,18.10
2022-09-07T06:11:42.657Z,19.24
2022-09-07T06:12:45.553Z,19.29
2022-09-07T06:13:42.628Z,19.08
2022-09-07T06:14:42.616Z,18.95
2022-09-07T06:15:42.601Z,19.08
2022-09-07T06:16:42.661Z,18.63
2022-09-07T06:17:42.575Z,18.34
2022-09-07T06:18:42.566Z,18.41
2022-09-07T06:19:42.555Z,19.09
2022-09-07T06:20:42.539Z,19.48
2022-09-07T06:21:42.533Z,20.16
2022-09-07T06:22:42.511Z,20.67
2022-09-07T06:23:42.504Z,21.48
2022-09-07T06:24:42.491Z,22.44
2022-09-07T06:25:42.483Z,23.28
2022-09-07T06:26:42.466Z,23.81
2022-09-07T06:27:42.449Z,23.84
2022-09-07T06:28:42.439Z,24.26
2022-09-07T06:29:42.438Z,24.57
2022-09-07T06:30:42.421Z,25.28
2022-09-07T06:33:42.380Z,26.88
2022-09-07T06:34:42.361Z,27.48
2022-09-07T06:35:42.352Z,27.98
2022-09-07T06:36:42.342Z,28.23
2022-09-07T06:37:42.325Z,27.68
2022-09-07T06:38:42.312Z,27.89
2022-09-07T06:39:42.346Z,28.14
2022-09-07T06:40:42.285Z,28.08
2022-09-07T06:42:42.268Z,27.14
2022-09-07T06:43:45.569Z,26.99
2022-09-07T06:44:42.239Z,26.52
2022-09-07T06:45:42.303Z,25.55
2022-09-07T06:47:42.202Z,23.63
2022-09-07T06:48:44.473Z,22.70
2022-09-07T06:49:42.182Z,22.20
2022-09-07T06:50:42.164Z,22.15
2022-09-07T06:51:42.146Z,22.14
2022-09-07T06:53:44.488Z,21.67
2022-09-07T06:55:42.104Z,22.44
2022-09-07T06:56:42.100Z,23.54
2022-09-07T06:57:42.074Z,24.02
2022-09-07T06:58:42.572Z,24.74
2022-09-07T06:59:42.057Z,25.48
2022-09-07T07:00:42.139Z,26.23
2022-09-07T07:01:42.023Z,26.63
2022-09-07T07:02:42.008Z,27.02
2022-09-07T07:03:42.087Z,27.52
2022-09-07T07:04:41.991Z,27.89
2022-09-07T07:05:41.977Z,28.08
2022-09-07T07:06:41.961Z,27.77
2022-09-07T07:07:41.958Z,28.04
2022-09-07T07:08:41.938Z,28.64
2022-09-07T07:09:42.062Z,29.12
2022-09-07T07:10:41.911Z,29.63
2022-09-07T07:11:41.901Z,29.45
2022-09-07T07:13:55.217Z,30.19
2022-09-07T07:14:55.205Z,30.47
2022-09-07T07:15:55.268Z,30.70
2022-09-07T07:16:55.181Z,30.94
2022-09-07T07:17:59.073Z,31.00
2022-09-07T07:18:56.189Z,31.03
2022-09-07T07:19:55.144Z,31.17
2022-09-07T07:20:55.133Z,31.22
2022-09-07T07:22:14.273Z,30.90
2022-09-07T07:22:56.129Z,30.77
2022-09-07T07:23:55.098Z,30.77
2022-09-07T07:24:55.087Z,31.03
2022-09-07T07:25:55.068Z,31.39
2022-09-07T07:26:55.052Z,31.61
2022-09-07T07:27:55.081Z,31.34
2022-09-07T07:29:03.437Z,31.20
2022-09-07T07:29:56.051Z,30.99
2022-09-07T07:30:55.004Z,30.46
2022-09-07T07:31:54.996Z,30.39
2022-09-07T07:32:55.015Z,30.46
2022-09-07T07:33:55.061Z,30.48
2022-09-07T07:34:54.948Z,29.82
2022-09-07T07:35:54.955Z,28.76
2022-09-07T07:36:54.934Z,27.78
2022-09-07T07:38:59.364Z,26.07
2022-09-07T07:41:58.650Z,23.68
2022-09-07T07:42:54.856Z,23.40
2022-09-07T07:43:54.841Z,23.24
2022-09-07T07:45:54.890Z,22.88
2022-09-07T07:46:54.881Z,22.54
2022-09-07T07:47:54.795Z,21.93
2022-09-07T07:48:54.784Z,21.77
2022-09-07T07:50:30.774Z,21.66
2022-09-07T07:50:55.955Z,21.37
2022-09-07T07:53:55.232Z,20.95
2022-09-07T07:54:54.706Z,20.99
2022-09-07T07:55:54.690Z,21.17
2022-09-07T07:56:54.678Z,21.25
2022-09-07T07:57:54.662Z,21.18
2022-09-07T07:58:54.660Z,21.15
2022-09-07T07:59:54.639Z,21.11
2022-09-07T08:00:56.108Z,21.11
2022-09-07T08:01:54.831Z,21.15
2022-09-07T08:02:54.603Z,21.05
2022-09-07T08:03:54.588Z,21.02
2022-09-07T08:04:54.575Z,21.03
2022-09-07T08:05:54.593Z,21.15
2022-09-07T08:06:54.547Z,21.18
2022-09-07T08:07:54.534Z,21.18
2022-09-07T08:08:54.527Z,21.25
2022-09-07T08:09:54.504Z,21.33
2022-09-07T08:10:54.510Z,21.39
2022-09-07T08:11:54.488Z,21.27
2022-09-07T08:12:54.477Z,21.18
2022-09-07T08:13:54.456Z,21.12
2022-09-07T08:14:54.450Z,20.95
2022-09-07T08:15:54.463Z,20.81
2022-09-07T08:16:54.428Z,20.77
2022-09-07T08:17:54.412Z,20.70
2022-09-07T08:18:54.396Z,20.70
2022-09-07T08:19:54.402Z,20.78
2022-09-07T08:20:54.402Z,20.75
2022-09-07T08:21:54.410Z,20.66
2022-09-07T08:22:54.360Z,20.63
2022-09-07T08:23:54.340Z,20.65
2022-09-07T08:24:54.339Z,20.65
2022-09-07T08:25:54.314Z,20.63
2022-09-07T08:26:54.306Z,20.55
2022-09-07T08:27:54.283Z,20.55
2022-09-07T08:28:54.287Z,20.58
2022-09-07T08:29:54.260Z,20.59
2022-09-07T08:30:54.250Z,20.60
2022-09-07T08:31:54.315Z,20.65
2022-09-07T08:32:54.223Z,20.67
2022-09-07T08:33:54.214Z,20.70
2022-09-07T08:34:54.193Z,20.80
2022-09-07T08:35:54.194Z,20.85
2022-09-07T08:36:54.162Z,20.84
2022-09-07T08:37:54.190Z,20.95
2022-09-07T08:38:54.144Z,21.00
2022-09-07T08:39:54.184Z,20.95
2022-09-07T08:40:54.120Z,20.96
2022-09-07T08:41:54.105Z,20.88
2022-09-07T08:42:54.104Z,20.88
2022-09-07T08:43:54.081Z,20.84
2022-09-07T08:44:54.072Z,20.87
2022-09-07T08:45:54.061Z,20.81
2022-09-07T08:46:54.109Z,20.82
2022-09-07T08:47:54.034Z,20.85
2022-09-07T08:48:54.015Z,20.78
2022-09-07T08:49:54.008Z,20.69
2022-09-07T08:50:54.009Z,20.65
2022-09-07T08:51:53.975Z,20.66
2022-09-07T08:52:53.967Z,20.67
2022-09-07T08:53:53.991Z,20.65
2022-09-07T08:54:53.936Z,20.75
2022-09-07T08:55:53.932Z,20.85
2022-09-07T08:57:23.784Z,20.95
2022-09-07T08:57:54.950Z,21.00
2022-09-07T08:58:53.896Z,21.05
2022-09-07T08:59:53.877Z,21.14
2022-09-07T09:01:30.713Z,21.20
2022-09-07T09:05:53.941Z,21.29
2022-09-07T09:06:53.959Z,21.35
2022-09-07T09:07:53.775Z,21.39
2022-09-07T09:08:53.763Z,21.42
2022-09-07T09:09:53.786Z,21.39
2022-09-07T09:10:53.739Z,21.33
2022-09-07T09:11:53.728Z,21.30
2022-09-07T09:12:53.726Z,21.32
2022-09-07T09:13:53.700Z,21.35
2022-09-07T09:14:53.687Z,21.36
2022-09-07T09:15:53.764Z,21.27
2022-09-07T09:16:53.661Z,21.30
2022-09-07T09:17:53.647Z,21.27
2022-09-07T09:18:53.639Z,21.32
2022-09-07T09:19:53.628Z,21.35
2022-09-07T09:20:53.611Z,21.36
2022-09-07T09:21:53.598Z,21.42
2022-09-07T09:22:53.595Z,21.43
2022-09-07T09:23:53.577Z,21.48
2022-09-07T09:24:53.578Z,21.45
2022-09-07T09:25:53.570Z,21.40
2022-09-07T09:26:53.536Z,21.36
2022-09-07T09:27:53.522Z,21.35
2022-09-07T09:28:53.507Z,21.42
2022-09-07T09:29:53.492Z,21.48
2022-09-07T09:30:53.545Z,21.40
2022-09-07T09:31:53.469Z,21.37
2022-09-07T09:32:53.459Z,21.45
2022-09-07T09:33:53.442Z,21.51
2022-09-07T09:34:53.433Z,21.54
2022-09-07T09:35:53.422Z,21.52
2022-09-07T09:36:53.409Z,21.52
2022-09-07T09:37:53.393Z,21.54
2022-09-07T09:38:53.384Z,21.54
2022-09-07T09:39:55.450Z,21.58
2022-09-07T09:40:53.354Z,21.58
2022-09-07T09:41:53.376Z,21.52
2022-09-07T09:42:53.344Z,21.51
2022-09-07T09:43:53.329Z,21.58
2022-09-07T09:44:53.300Z,21.62
2022-09-07T09:47:54.770Z,21.61
2022-09-07T09:48:53.254Z,21.64
2022-09-07T09:49:53.248Z,21.64
2022-09-07T09:52:53.213Z,21.75
2022-09-07T09:53:53.191Z,21.80
2022-09-07T09:54:53.173Z,21.91
2022-09-07T09:55:53.169Z,21.96
2022-09-07T09:56:53.154Z,22.00
2022-09-07T09:59:58.535Z,22.08
2022-09-07T10:04:53.049Z,22.14
2022-09-07T10:05:53.043Z,22.13
2022-09-07T10:06:53.047Z,22.18
2022-09-07T10:07:53.014Z,22.17
2022-09-07T10:08:52.997Z,22.18
2022-09-07T10:09:52.981Z,22.22
2022-09-07T10:10:52.975Z,22.22
2022-09-07T10:12:08.831Z,22.25
2022-09-07T10:12:53.974Z,22.33
2022-09-07T10:13:52.963Z,22.36
2022-09-07T10:14:52.923Z,22.43
2022-09-07T10:15:52.946Z,22.44
2022-09-07T10:16:52.897Z,22.47
2022-09-07T10:17:59.281Z,22.53
2022-09-07T10:18:53.066Z,22.53
2022-09-07T10:19:52.859Z,22.55
2022-09-07T10:20:52.852Z,22.54
2022-09-07T10:21:52.842Z,22.53
2022-09-07T10:22:53.024Z,22.59
2022-09-07T10:23:52.813Z,22.63
2022-09-07T10:24:52.996Z,22.70
2022-09-07T10:25:52.779Z,22.72
2022-09-07T10:26:52.766Z,22.75
2022-09-07T10:27:52.951Z,22.78
2022-09-07T10:29:08.888Z,22.80
2022-09-07T10:29:53.791Z,22.83
2022-09-07T10:30:52.937Z,22.88
2022-09-07T10:31:52.908Z,22.93
2022-09-07T10:32:52.693Z,22.94
2022-09-07T10:34:53.707Z,22.94
2022-09-07T10:35:52.852Z,22.93
2022-09-07T10:36:52.643Z,22.90
2022-09-07T10:37:52.832Z,22.90
2022-09-07T10:38:52.812Z,22.84
2022-09-07T10:39:55.809Z,22.85
2022-09-07T10:40:52.599Z,22.85
2022-09-07T10:41:52.577Z,22.91
2022-09-07T10:43:52.551Z,22.90
2022-09-07T10:44:52.540Z,22.90
2022-09-07T10:45:52.593Z,22.91
2022-09-07T10:46:59.892Z,22.98
2022-09-07T10:47:53.534Z,23.00
2022-09-07T10:48:52.492Z,22.94
2022-09-07T10:50:52.472Z,22.80
2022-09-07T10:51:52.454Z,22.70
2022-09-07T10:52:52.451Z,22.70
2022-09-07T10:54:52.415Z,22.65
2022-09-07T10:55:52.412Z,22.68
2022-09-07T10:56:52.582Z,22.69
2022-09-07T10:57:52.381Z,22.72
2022-09-07T10:59:07.880Z,22.76
2022-09-07T11:00:09.651Z,22.85
2022-09-07T11:00:53.365Z,22.91
2022-09-07T11:01:52.443Z,22.96
2022-09-07T11:03:53.412Z,22.98
2022-09-07T11:04:52.293Z,22.94
2022-09-07T11:05:52.277Z,22.94
2022-09-07T11:06:52.459Z,22.93
2022-09-07T11:07:52.248Z,22.98
2022-09-07T11:09:52.419Z,23.10
2022-09-07T11:10:52.403Z,23.13
2022-09-07T11:12:07.909Z,23.09
2022-09-07T11:12:53.413Z,23.06
2022-09-07T11:14:11.990Z,23.05
2022-09-07T11:14:55.780Z,23.05
2022-09-07T11:15:55.230Z,23.12
2022-09-07T11:16:58.600Z,23.18
2022-09-07T11:17:53.498Z,23.21
2022-09-07T11:18:52.273Z,23.21
2022-09-07T11:19:52.294Z,23.27
2022-09-07T11:20:52.287Z,23.31
2022-09-07T11:21:59.510Z,23.36
2022-09-07T11:22:53.693Z,23.47
2022-09-07T11:23:52.245Z,23.59
2022-09-07T11:25:53.256Z,23.69
2022-09-07T11:26:52.207Z,23.68
2022-09-07T11:27:52.421Z,23.66
2022-09-07T11:29:53.217Z,23.66
2022-09-07T11:30:56.676Z,23.69
2022-09-07T11:31:53.593Z,23.69
2022-09-07T11:32:52.361Z,23.73
2022-09-07T11:34:52.945Z,23.74
2022-09-07T11:35:51.909Z,23.71
2022-09-07T11:36:52.283Z,23.66
2022-09-07T11:37:54.923Z,23.68
2022-09-07T11:38:52.470Z,23.68
2022-09-07T11:39:52.114Z,23.66
2022-09-07T11:40:52.040Z,23.71
2022-09-07T11:41:51.830Z,23.71
2022-09-07T11:42:52.027Z,23.68
2022-09-07T11:43:52.038Z,23.65
2022-09-07T11:44:52.064Z,23.66
2022-09-07T11:45:52.034Z,23.68
2022-09-07T11:46:51.980Z,23.71
2022-09-07T11:47:52.159Z,23.74
2022-09-07T11:48:51.776Z,23.74
2022-09-07T11:49:56.056Z,23.81
2022-09-07T11:50:53.356Z,23.91
2022-09-07T11:51:54.739Z,23.96
2022-09-07T11:52:54.733Z,23.95
2022-09-07T11:53:51.702Z,24.01
2022-09-07T11:54:51.921Z,24.03
2022-09-07T11:55:51.669Z,24.10
2022-09-07T11:56:51.648Z,24.14
2022-09-07T11:57:55.451Z,24.20
2022-09-07T11:58:51.637Z,24.24
2022-09-07T11:59:51.628Z,24.26
2022-09-07T12:00:52.654Z,24.29
2022-09-07T12:01:51.588Z,24.30
2022-09-07T12:03:00.237Z,24.29
2022-09-07T12:03:52.761Z,24.32
2022-09-07T12:04:56.021Z,24.28
2022-09-07T12:05:51.545Z,24.26
2022-09-07T12:06:51.535Z,24.26
2022-09-07T12:07:51.523Z,24.28
2022-09-07T12:08:51.512Z,24.29
2022-09-07T12:09:51.498Z,24.23
2022-09-07T12:10:51.483Z,24.20
2022-09-07T12:11:51.468Z,24.18
2022-09-07T12:12:51.465Z,24.18
2022-09-07T12:13:51.446Z,24.21
2022-09-07T12:14:51.433Z,24.23
2022-09-07T12:15:51.494Z,24.23
2022-09-07T12:16:51.412Z,24.24
2022-09-07T12:17:51.403Z,24.28
2022-09-07T12:18:51.385Z,24.26
2022-09-07T12:19:51.378Z,24.28
2022-09-07T12:20:51.390Z,24.23
2022-09-07T12:21:51.365Z,24.21
2022-09-07T12:22:51.339Z,24.20
2022-09-07T12:23:51.329Z,24.16
2022-09-07T12:24:51.335Z,24.13
2022-09-07T12:25:51.305Z,24.16
2022-09-07T12:26:51.295Z,24.13
2022-09-07T12:27:51.285Z,24.11
2022-09-07T12:28:51.272Z,24.11
2022-09-07T12:29:51.251Z,24.16
2022-09-07T12:30:51.310Z,24.21
2022-09-07T12:32:00.716Z,24.24
2022-09-07T12:32:54.524Z,24.30
2022-09-07T12:33:51.202Z,24.33
2022-09-07T12:34:51.259Z,24.38
2022-09-07T12:35:51.179Z,24.40
2022-09-07T12:36:51.186Z,24.39
2022-09-07T12:37:51.157Z,24.40
2022-09-07T12:38:51.138Z,24.43
2022-09-07T12:39:51.143Z,24.39
2022-09-07T12:40:51.113Z,24.33
2022-09-07T12:42:31.737Z,24.30
2022-09-07T12:42:52.127Z,24.35
2022-09-07T12:43:51.080Z,24.32
2022-09-07T12:44:51.116Z,24.30
2022-09-07T12:45:51.173Z,24.26
2022-09-07T12:46:51.108Z,24.26
2022-09-07T12:47:51.034Z,24.26
2022-09-07T12:48:51.033Z,24.28
2022-09-07T12:49:51.016Z,24.28
2022-09-07T12:50:51.153Z,24.28
2022-09-07T12:52:15.450Z,24.29
2022-09-07T12:52:52.025Z,24.29
2022-09-07T12:53:55.531Z,24.28
2022-09-07T12:55:10.003Z,24.26
2022-09-07T12:56:21.535Z,24.24
2022-09-07T12:57:50.922Z,24.23
2022-09-07T12:58:50.893Z,24.23
2022-09-07T12:59:50.884Z,24.21
2022-09-07T13:00:50.870Z,24.14
2022-09-07T13:01:50.950Z,24.14
2022-09-07T13:02:50.918Z,24.13
2022-09-07T13:03:51.718Z,24.14
2022-09-07T13:04:50.822Z,24.13
2022-09-07T13:05:50.809Z,24.17
2022-09-07T13:07:06.076Z,24.18
2022-09-07T13:07:51.817Z,24.17
2022-09-07T13:08:50.792Z,24.17
2022-09-07T13:09:50.767Z,24.17
2022-09-07T13:10:50.765Z,24.16
2022-09-07T13:11:50.741Z,24.17
2022-09-07T13:12:54.385Z,24.16
2022-09-07T13:14:08.854Z,24.16
2022-09-07T13:14:51.812Z,24.17
2022-09-07T13:15:50.719Z,24.18
2022-09-07T13:17:20.447Z,24.18
2022-09-07T13:17:51.711Z,24.16
2022-09-07T13:18:50.651Z,24.13
2022-09-07T13:19:50.648Z,24.14
2022-09-07T13:20:50.627Z,24.10
2022-09-07T13:21:50.619Z,24.10
2022-09-07T13:22:50.610Z,24.11
2022-09-07T13:23:50.596Z,24.13
2022-09-07T13:24:50.768Z,24.13
2022-09-07T13:25:50.575Z,24.14
2022-09-07T13:26:51.291Z,24.14
2022-09-07T13:27:51.232Z,24.13
2022-09-07T13:28:50.550Z,24.14
2022-09-07T13:29:50.524Z,24.18
2022-09-07T13:30:50.551Z,24.24
2022-09-07T13:31:50.503Z,24.18
2022-09-07T13:33:50.483Z,24.21
2022-09-07T13:34:50.450Z,24.23
2022-09-07T13:35:50.441Z,24.21
2022-09-07T13:36:50.435Z,24.20